createdAt,value
2022-09-10T00:02:09.980Z,77.00
2022-09-10T00:04:36.917Z,76.80
2022-09-10T00:07:03.729Z,76.90
2022-09-10T00:09:30.757Z,76.40
2022-09-10T00:11:58.072Z,76.80
2022-09-10T00:14:24.904Z,76.70
2022-09-10T00:16:52.056Z,76.70
2022-09-10T00:19:19.607Z,76.80
2022-09-10T00:21:46.360Z,76.90
2022-09-10T00:24:13.630Z,77.50
2022-09-10T00:26:40.435Z,77.10
2022-09-10T00:29:10.383Z,77.30
2022-09-10T00:31:38.063Z,77.20
2022-09-10T00:34:05.948Z,77.20
2022-09-10T00:36:37.114Z,77.30
2022-09-10T00:39:16.561Z,77.90
2022-09-10T00:41:45.565Z,78.30
2022-09-10T00:44:40.425Z,77.00
2022-09-10T00:47:34.698Z,77.20
2022-09-10T00:50:08.520Z,77.60
2022-09-10T00:52:39.655Z,77.40
2022-09-10T00:55:07.936Z,77.70
2022-09-10T00:57:36.002Z,77.70
2022-09-10T01:00:08.855Z,77.60
2022-09-10T01:02:37.973Z,78.10
2022-09-10T01:05:07.136Z,77.80
2022-09-10T01:07:34.343Z,78.00
2022-09-10T01:10:06.498Z,78.30
2022-09-10T01:12:45.311Z,78.10
2022-09-10T01:15:46.496Z,78.40
2022-09-10T01:18:13.838Z,78.30
2022-09-10T01:20:58.778Z,78.40
2022-09-10T01:23:28.821Z,78.50
2022-09-10T01:26:37.699Z,77.90
2022-09-10T01:29:10.502Z,78.10
2022-09-10T01:31:48.424Z,77.90
2022-09-10T01:34:26.396Z,78.10
2022-09-10T01:36:58.316Z,78.20
2022-09-10T01:39:25.909Z,78.20
2022-09-10T01:41:54.509Z,78.10
2022-09-10T01:44:48.170Z,78.10
2022-09-10T01:47:31.269Z,78.10
2022-09-10T01:50:22.790Z,77.70
2022-09-10T01:53:10.841Z,78.00
2022-09-10T01:55:58.611Z,77.80
2022-09-10T01:58:54.605Z,77.90
2022-09-10T02:01:40.485Z,77.50
2022-09-10T02:04:10.421Z,77.40
2022-09-10T02:06:40.195Z,77.20
2022-09-10T02:09:08.978Z,77.20
2022-09-10T02:11:53.050Z,76.90
2022-09-10T02:14:21.891Z,77.20
2022-09-10T02:16:58.723Z,77.40
2022-09-10T02:19:27.612Z,77.10
2022-09-10T02:21:57.690Z,76.90
2022-09-10T02:24:24.536Z,77.00
2022-09-10T02:26:51.676Z,77.00
2022-09-10T02:29:19.270Z,76.90
2022-09-10T02:31:47.828Z,76.60
2022-09-10T02:34:18.129Z,76.60
2022-09-10T02:36:44.819Z,76.80
2022-09-10T02:39:11.501Z,76.90
2022-09-10T02:41:40.933Z,76.70
2022-09-10T02:44:08.746Z,76.70
2022-09-10T02:46:35.823Z,76.80
2022-09-10T02:49:03.656Z,76.90
2022-09-10T02:51:30.552Z,76.70
2022-09-10T02:53:57.578Z,76.20
2022-09-10T02:56:24.345Z,76.10
2022-09-10T02:58:51.438Z,76.20
2022-09-10T03:01:20.650Z,76.00
2022-09-10T03:03:55.501Z,76.10
2022-09-10T03:06:24.446Z,75.90
2022-09-10T03:08:52.170Z,76.10
2022-09-10T03:11:19.512Z,75.70
2022-09-10T03:13:46.725Z,75.40
2022-09-10T03:16:13.954Z,75.70
2022-09-10T03:18:41.520Z,75.70
2022-09-10T03:21:13.894Z,75.40
2022-09-10T03:23:45.737Z,75.30
2022-09-10T03:26:14.467Z,75.70
2022-09-10T03:28:43.785Z,75.60
2022-09-10T03:31:11.551Z,75.70
2022-09-10T03:33:38.424Z,75.30
2022-09-10T03:36:05.422Z,75.10
2022-09-10T03:38:32.653Z,75.10
2022-09-10T03:41:02.010Z,75.30
2022-09-10T03:43:29.487Z,75.10
2022-09-10T03:45:58.567Z,75.50
2022-09-10T03:48:31.017Z,75.40
2022-09-10T03:50:58.093Z,75.00
2022-09-10T03:53:25.861Z,75.20
2022-09-10T03:55:55.785Z,75.00
2022-09-10T03:58:25.529Z,75.00
2022-09-10T04:00:52.893Z,75.20
2022-09-10T04:03:20.380Z,74.80
2022-09-10T04:05:47.482Z,74.60
2022-09-10T04:08:16.127Z,75.00
2022-09-10T04:10:44.361Z,75.00
2022-09-10T04:13:11.704Z,74.80
2022-09-10T04:15:38.579Z,75.00
2022-09-10T04:18:06.907Z,75.00
2022-09-10T04:20:34.379Z,74.90
2022-09-10T04:23:01.717Z,74.90
2022-09-10T04:25:28.531Z,74.80
2022-09-10T04:27:55.284Z,75.00
2022-09-10T04:30:22.225Z,74.70
2022-09-10T04:32:49.833Z,74.80
2022-09-10T04:35:16.729Z,74.90
2022-09-10T04:37:43.519Z,75.60
2022-09-10T04:40:10.962Z,75.00
2022-09-10T04:42:38.243Z,74.90
2022-09-10T04:45:06.059Z,75.10
2022-09-10T04:47:33.948Z,75.50
2022-09-10T04:50:00.990Z,75.10
2022-09-10T04:52:28.936Z,75.00
2022-09-10T04:54:56.043Z,75.00
2022-09-10T04:57:23.653Z,74.90
2022-09-10T04:59:50.371Z,74.70
2022-09-10T05:02:17.334Z,74.50
2022-09-10T05:04:44.769Z,75.00
2022-09-10T05:07:11.755Z,75.00
2022-09-10T05:09:38.471Z,74.70
2022-09-10T05:12:05.520Z,74.50
2022-09-10T05:14:33.534Z,74.50
2022-09-10T05:17:01.623Z,74.80
2022-09-10T05:19:29.052Z,74.90
2022-09-10T05:21:55.839Z,74.80
2022-09-10T05:24:22.672Z,74.90
2022-09-10T05:26:49.516Z,74.90
2022-09-10T05:29:16.604Z,74.50
2022-09-10T05:31:43.893Z,74.50
2022-09-10T05:34:11.191Z,74.80
2022-09-10T05:36:44.525Z,75.60
2022-09-10T05:39:11.294Z,75.10
2022-09-10T05:41:38.022Z,74.80
2022-09-10T05:44:05.327Z,74.80
2022-09-10T05:46:32.989Z,74.80
2022-09-10T05:48:59.775Z,75.10
2022-09-10T05:51:29.792Z,75.20
2022-09-10T05:53:57.607Z,75.40
2022-09-10T05:56:26.030Z,75.30
2022-09-10T05:58:52.999Z,75.60
2022-09-10T06:01:20.077Z,75.10
2022-09-10T06:03:47.301Z,75.70
2022-09-10T06:06:14.829Z,75.40
2022-09-10T06:08:41.722Z,75.20
2022-09-10T06:11:10.550Z,74.40
2022-09-10T06:13:39.866Z,74.40
2022-09-10T06:16:07.412Z,74.60
2022-09-10T06:18:38.760Z,74.60
2022-09-10T06:21:08.735Z,74.60
2022-09-10T06:23:36.530Z,74.50
2022-09-10T06:26:05.733Z,75.00
2022-09-10T06:28:35.368Z,74.90
2022-09-10T06:31:04.753Z,73.30
2022-09-10T06:33:32.588Z,72.40
2022-09-10T06:36:00.805Z,72.30
2022-09-10T06:38:33.538Z,72.10
2022-09-10T06:41:02.194Z,72.00
2022-09-10T06:43:32.967Z,71.70
2022-09-10T06:45:59.897Z,71.80
2022-09-10T06:48:38.656Z,72.20
2022-09-10T06:51:09.157Z,72.80
2022-09-10T06:53:37.859Z,73.10
2022-09-10T06:56:06.083Z,73.30
2022-09-10T06:58:36.303Z,73.40
2022-09-10T07:01:11.897Z,75.10
2022-09-10T07:03:38.504Z,77.20
2022-09-10T07:06:07.842Z,76.30
2022-09-10T07:08:34.921Z,75.20
2022-09-10T07:11:04.794Z,74.60
2022-09-10T07:13:32.816Z,74.60
2022-09-10T07:16:00.359Z,73.90
2022-09-10T07:18:28.817Z,74.00
2022-09-10T07:21:11.679Z,73.80
2022-09-10T07:23:41.753Z,73.40
2022-09-10T07:26:14.313Z,73.30
2022-09-10T07:28:42.818Z,72.90
2022-09-10T07:31:13.618Z,72.60
2022-09-10T07:33:40.877Z,71.90
2022-09-10T07:36:08.459Z,72.10
2022-09-10T07:38:35.626Z,72.20
2022-09-10T07:41:03.559Z,72.10
2022-09-10T07:43:30.404Z,71.70
2022-09-10T07:46:03.548Z,71.60
2022-09-10T07:48:31.073Z,70.70
2022-09-10T07:51:06.130Z,70.50
2022-09-10T07:53:33.019Z,70.90
2022-09-10T07:56:06.275Z,70.80
2022-09-10T07:58:35.766Z,70.80
2022-09-10T08:01:06.714Z,70.30
2022-09-10T08:03:34.022Z,70.30
2022-09-10T08:06:05.011Z,69.60
2022-09-10T08:08:33.772Z,69.30
2022-09-10T08:11:12.021Z,69.40
2022-09-10T08:13:41.839Z,69.00
2022-09-10T08:16:13.286Z,69.60
2022-09-10T08:18:46.939Z,69.50
2022-09-10T08:21:14.493Z,68.40
2022-09-10T08:23:41.380Z,67.90
2022-09-10T08:26:08.817Z,67.90
2022-09-10T08:28:36.451Z,67.90
2022-09-10T08:31:07.771Z,67.50
2022-09-10T08:33:36.595Z,67.40
2022-09-10T08:36:05.040Z,67.90
2022-09-10T08:38:34.951Z,67.40
2022-09-10T08:41:09.603Z,67.00
2022-09-10T08:43:47.032Z,67.60
2022-09-10T08:46:22.580Z,68.20
2022-09-10T08:48:58.150Z,68.00
2022-09-10T08:51:27.527Z,67.60
2022-09-10T08:54:16.881Z,67.70
2022-09-10T08:56:45.285Z,67.80
2022-09-10T08:59:24.453Z,67.80
2022-09-10T09:02:44.653Z,67.90
2022-09-10T09:05:15.420Z,67.90
2022-09-10T09:07:42.646Z,66.30
2022-09-10T09:10:24.740Z,66.50
2022-09-10T09:13:40.125Z,67.10
2022-09-10T09:16:44.615Z,67.90
2022-09-10T09:19:34.499Z,67.20
2022-09-10T09:22:17.181Z,66.00
2022-09-10T09:25:19.944Z,65.00
2022-09-10T09:27:47.635Z,64.10
2022-09-10T09:30:37.937Z,65.30
2022-09-10T09:33:15.547Z,65.30
2022-09-10T09:36:05.371Z,63.30
2022-09-10T09:38:37.541Z,62.80
2022-09-10T09:41:27.591Z,62.80
2022-09-10T09:44:05.953Z,63.20
2022-09-10T09:46:34.570Z,62.80
2022-09-10T09:49:17.833Z,62.50
2022-09-10T09:51:48.809Z,62.10
2022-09-10T09:57:17.081Z,61.90
2022-09-10T09:59:43.971Z,61.70
2022-09-10T10:02:18.979Z,59.20
2022-09-10T10:04:57.583Z,57.70
2022-09-10T10:07:33.462Z,58.60
2022-09-10T10:10:01.996Z,59.40
2022-09-10T10:12:33.419Z,60.00
2022-09-10T10:15:02.610Z,60.50
2022-09-10T10:17:35.549Z,60.20
2022-09-10T10:20:05.539Z,59.30
2022-09-10T10:22:32.561Z,58.80
2022-09-10T10:25:01.561Z,59.30
2022-09-10T10:27:32.869Z,59.80
2022-09-10T10:30:22.725Z,60.10
2022-09-10T10:33:12.498Z,61.00
2022-09-10T10:36:03.941Z,61.50
2022-09-10T10:38:31.238Z,63.10
2022-09-10T10:41:33.274Z,61.70
2022-09-10T10:44:18.201Z,61.80
2022-09-10T10:47:26.745Z,62.10
2022-09-10T10:50:32.499Z,62.10
2022-09-10T10:53:50.914Z,60.40
2022-09-10T10:56:38.406Z,59.80
2022-09-10T10:59:45.567Z,61.40
2022-09-10T11:02:21.716Z,61.90
2022-09-10T11:04:54.212Z,61.90
2022-09-10T11:07:50.692Z,60.50
2022-09-10T11:10:32.872Z,60.10
2022-09-10T11:13:13.796Z,60.50
2022-09-10T11:16:05.688Z,59.60
2022-09-10T11:18:44.737Z,59.60
2022-09-10T11:21:21.390Z,59.60
2022-09-10T11:24:03.065Z,58.20
2022-09-10T11:26:48.967Z,58.60
2022-09-10T11:29:25.323Z,57.10
2022-09-10T11:32:09.079Z,57.80
2022-09-10T11:34:49.616Z,58.30
2022-09-10T11:37:45.157Z,58.00
2022-09-10T11:40:39.706Z,58.40
2022-09-10T11:43:12.911Z,58.70
2022-09-10T11:45:52.608Z,58.00
2022-09-10T11:48:37.259Z,57.70
2022-09-10T11:51:14.199Z,58.20
2022-09-10T11:53:43.777Z,57.80
2022-09-10T11:56:41.954Z,58.20
2022-09-10T11:59:46.873Z,58.10
2022-09-10T12:02:16.391Z,57.80
2022-09-10T12:04:47.303Z,58.00
2022-09-10T12:07:34.394Z,57.30
2022-09-10T12:10:23.178Z,57.50
2022-09-10T12:12:50.431Z,57.70
2022-09-10T12:15:24.320Z,58.00
2022-09-10T12:18:14.603Z,58.30
2022-09-10T12:20:52.704Z,58.00
2022-09-10T12:23:32.375Z,57.50
2022-09-10T12:26:11.456Z,56.80
2022-09-10T12:28:53.981Z,56.80
2022-09-10T12:31:22.239Z,56.90
2022-09-10T12:33:51.279Z,57.40
2022-09-10T12:36:27.210Z,58.10
2022-09-10T12:39:22.064Z,58.90
2022-09-10T12:41:49.928Z,59.70
2022-09-10T12:44:36.107Z,60.20
2022-09-10T12:47:15.119Z,60.40
2022-09-10T12:50:01.894Z,60.50
2022-09-10T12:52:34.877Z,60.60
2022-09-10T12:55:21.199Z,60.40
2022-09-10T12:58:24.488Z,60.60
2022-09-10T13:00:54.502Z,60.70
2022-09-10T13:03:24.864Z,60.40
2022-09-10T13:05:55.724Z,60.50
2022-09-10T13:08:42.121Z,61.10
2022-09-10T13:11:15.838Z,61.60
2022-09-10T13:13:53.517Z,61.80
2022-09-10T13:16:38.387Z,61.50
2022-09-10T13:19:15.532Z,60.90
2022-09-10T13:21:45.334Z,59.40
2022-09-10T13:24:34.501Z,58.20
2022-09-10T13:27:04.860Z,58.10
2022-09-10T13:29:39.705Z,58.40
2022-09-10T13:32:40.821Z,57.50
2022-09-10T13:35:29.686Z,57.10
2022-09-10T13:38:24.539Z,56.80
2022-09-10T13:40:57.300Z,56.70
2022-09-10T13:43:48.788Z,58.60
2022-09-10T13:46:33.373Z,58.70
2022-09-10T13:49:13.598Z,57.90
2022-09-10T13:51:52.369Z,57.20
2022-09-10T13:54:36.001Z,56.80
2022-09-10T13:57:23.828Z,56.90
2022-09-10T13:59:55.025Z,56.50
2022-09-10T14:02:39.506Z,56.90
2022-09-10T14:05:23.220Z,56.90
2022-09-10T14:07:51.191Z,57.40
2022-09-10T14:10:18.636Z,57.30
2022-09-10T14:12:47.145Z,58.40
2022-09-10T14:15:21.708Z,57.60
2022-09-10T14:17:52.395Z,56.30
2022-09-10T14:20:28.961Z,57.70
2022-09-10T14:23:05.760Z,57.00
2022-09-10T14:25:37.951Z,57.40
2022-09-10T14:28:16.703Z,56.40
2022-09-10T14:30:44.649Z,56.30
2022-09-10T14:33:28.521Z,57.10
2022-09-10T14:36:12.597Z,55.20
2022-09-10T14:38:42.320Z,55.30
2022-09-10T14:41:31.554Z,55.30
2022-09-10T14:44:23.247Z,55.80
2022-09-10T14:47:00.612Z,55.40
2022-09-10T14:49:33.670Z,55.30
2022-09-10T14:52:01.643Z,55.00
2022-09-10T14:54:29.734Z,54.90
2022-09-10T14:56:58.003Z,55.90
2022-09-10T14:59:30.392Z,56.10
2022-09-10T15:01:59.450Z,56.20
2022-09-10T15:04:27.414Z,56.10
2022-09-10T15:06:57.136Z,56.30
2022-09-10T15:09:25.381Z,55.10
2022-09-10T15:12:05.055Z,55.50
2022-09-10T15:14:33.458Z,55.20
2022-09-10T15:17:00.756Z,56.10
2022-09-10T15:19:27.885Z,55.90
2022-09-10T15:21:54.922Z,56.20
2022-09-10T15:24:24.700Z,55.60
2022-09-10T15:26:52.793Z,55.20
2022-09-10T15:29:21.393Z,54.70
2022-09-10T15:31:50.354Z,54.30
2022-09-10T15:34:18.285Z,54.20
2022-09-10T15:36:48.924Z,54.20
2022-09-10T15:39:16.509Z,54.20
2022-09-10T15:41:44.421Z,54.50
2022-09-10T15:44:12.106Z,55.10
2022-09-10T15:46:45.191Z,55.40
2022-09-10T15:49:12.097Z,55.50
2022-09-10T15:51:39.437Z,55.70
2022-09-10T15:54:06.786Z,55.80
2022-09-10T15:56:33.719Z,55.70
2022-09-10T15:59:00.972Z,55.90
2022-09-10T16:01:29.344Z,56.30
2022-09-10T16:03:59.398Z,57.00
2022-09-10T16:06:31.619Z,57.10
2022-09-10T16:09:02.823Z,57.00
2022-09-10T16:11:31.835Z,57.30
2022-09-10T16:14:04.294Z,57.40
2022-09-10T16:16:32.276Z,57.40
2022-09-10T16:19:00.474Z,58.20
2022-09-10T16:21:32.518Z,58.50
2022-09-10T16:24:00.432Z,58.90
2022-09-10T16:26:29.992Z,59.10
2022-09-10T16:29:01.724Z,59.00
2022-09-10T16:31:31.258Z,59.40
2022-09-10T16:34:00.682Z,59.50
2022-09-10T16:36:28.035Z,59.60
2022-09-10T16:39:01.587Z,60.00
2022-09-10T16:41:29.490Z,60.40
2022-09-10T16:44:00.658Z,61.00
2022-09-10T16:46:28.034Z,62.00
2022-09-10T16:48:55.643Z,62.80
2022-09-10T16:51:24.531Z,63.70
2022-09-10T16:54:02.899Z,64.60
2022-09-10T16:56:38.382Z,64.80
2022-09-10T16:59:08.096Z,65.10
2022-09-10T17:01:35.934Z,65.30
2022-09-10T17:04:04.638Z,65.70
2022-09-10T17:06:31.652Z,66.60
2022-09-10T17:08:59.894Z,66.10
2022-09-10T17:11:31.102Z,66.10
2022-09-10T17:13:59.106Z,66.40
2022-09-10T17:16:39.789Z,66.40
2022-09-10T17:19:20.277Z,66.70
2022-09-10T17:21:51.285Z,66.70
2022-09-10T17:24:21.257Z,66.40
2022-09-10T17:26:48.950Z,66.60
2022-09-10T17:29:18.822Z,66.90
2022-09-10T17:31:47.371Z,66.90
2022-09-10T17:34:16.329Z,67.00
2022-09-10T17:36:45.858Z,67.10
2022-09-10T17:39:13.707Z,67.30
2022-09-10T17:41:40.730Z,67.00
2022-09-10T17:44:08.198Z,67.30
2022-09-10T17:46:41.975Z,67.40
2022-09-10T17:49:12.732Z,67.70
2022-09-10T17:51:39.736Z,67.70
2022-09-10T17:54:07.622Z,68.00
2022-09-10T17:56:35.017Z,68.10
2022-09-10T17:59:03.464Z,68.40
2022-09-10T18:01:33.921Z,68.40
2022-09-10T18:04:00.890Z,68.40
2022-09-10T18:06:29.195Z,68.40
2022-09-10T18:09:03.877Z,68.40
2022-09-10T18:11:33.719Z,68.30
2022-09-10T18:14:01.182Z,68.10
2022-09-10T18:16:32.391Z,67.40
2022-09-10T18:19:03.232Z,66.90
2022-09-10T18:21:35.341Z,64.10
2022-09-10T18:24:06.369Z,64.10
2022-09-10T18:26:37.243Z,62.50
2022-09-10T18:29:07.707Z,62.00
2022-09-10T18:31:37.305Z,62.00
2022-09-10T18:34:06.816Z,61.30
2022-09-10T18:36:34.796Z,60.90
2022-09-10T18:39:11.348Z,60.30
2022-09-10T18:41:40.940Z,60.00
2022-09-10T18:44:16.515Z,59.70
2022-09-10T18:46:45.469Z,59.10
2022-09-10T18:49:19.019Z,59.50
2022-09-10T18:51:48.532Z,59.30
2022-09-10T18:54:16.692Z,59.30
2022-09-10T18:56:45.135Z,58.90
2022-09-10T18:59:15.167Z,58.50
2022-09-10T19:01:43.809Z,58.40
2022-09-10T19:04:16.053Z,58.10
2022-09-10T19:06:46.993Z,58.10
2022-09-10T19:09:20.186Z,57.80
2022-09-10T19:11:49.284Z,58.00
2022-09-10T19:14:26.774Z,58.40
2022-09-10T19:16:54.840Z,60.00
2022-09-10T19:19:23.797Z,60.70
2022-09-10T19:21:56.020Z,60.40
2022-09-10T19:24:44.098Z,60.10
2022-09-10T19:27:12.846Z,60.00
2022-09-10T19:29:43.055Z,60.00
2022-09-10T19:32:11.375Z,60.30
2022-09-10T19:34:39.088Z,60.40
2022-09-10T19:37:07.110Z,60.50
2022-09-10T19:39:34.326Z,60.30
2022-09-10T19:42:01.028Z,60.90
2022-09-10T19:44:27.996Z,61.00
2022-09-10T19:46:55.364Z,61.00
2022-09-10T19:49:22.267Z,60.90
2022-09-10T19:51:49.015Z,60.90
2022-09-10T19:54:16.119Z,61.20
2022-09-10T19:56:43.167Z,61.60
2022-09-10T19:59:10.270Z,61.80
2022-09-10T20:01:40.044Z,61.80
2022-09-10T20:04:12.668Z,61.80
2022-09-10T20:06:41.180Z,62.00
2022-09-10T20:09:09.969Z,62.00
2022-09-10T20:11:36.855Z,62.20
2022-09-10T20:14:17.055Z,61.60
2022-09-10T20:16:45.254Z,61.80
2022-09-10T20:19:23.919Z,61.90
2022-09-10T20:21:51.520Z,62.10
2022-09-10T20:24:18.695Z,62.40
2022-09-10T20:26:46.799Z,62.50
2022-09-10T20:29:16.437Z,62.50
2022-09-10T20:31:44.096Z,62.60
2022-09-10T20:34:16.290Z,62.80
2022-09-10T20:36:43.555Z,62.90
2022-09-10T20:39:13.684Z,63.70
2022-09-10T20:41:41.131Z,63.70
2022-09-10T20:44:09.861Z,62.80
2022-09-10T20:46:36.592Z,62.50
2022-09-10T20:49:03.432Z,62.70
2022-09-10T20:51:35.915Z,62.90
2022-09-10T20:54:04.108Z,62.70
2022-09-10T20:56:30.869Z,62.40
2022-09-10T20:58:58.011Z,63.90
2022-09-10T21:01:27.788Z,64.90
2022-09-10T21:03:59.198Z,65.00
2022-09-10T21:06:29.070Z,64.30
2022-09-10T21:08:55.970Z,65.00
2022-09-10T21:11:24.048Z,65.10
2022-09-10T21:13:54.018Z,65.10
2022-09-10T21:16:24.072Z,64.60
2022-09-10T21:18:54.793Z,64.30
2022-09-10T21:21:25.740Z,64.90
2022-09-10T21:24:04.611Z,64.70
2022-09-10T21:26:35.410Z,64.30
2022-09-10T21:29:03.988Z,64.20
2022-09-10T21:31:31.361Z,64.10
2022-09-10T21:34:03.351Z,64.30
2022-09-10T21:36:31.631Z,64.00
2022-09-10T21:39:00.273Z,64.10
2022-09-10T21:41:39.734Z,63.90
2022-09-10T21:44:21.951Z,64.00
2022-09-10T21:46:49.675Z,63.80
2022-09-10T21:49:17.207Z,63.70
2022-09-10T21:51:45.065Z,63.80
2022-09-10T21:54:14.718Z,63.90
2022-09-10T21:56:41.420Z,63.50
2022-09-10T21:59:11.043Z,64.00
2022-09-10T22:01:39.514Z,64.00
2022-09-10T22:04:06.461Z,63.70
2022-09-10T22:06:33.666Z,63.50
2022-09-10T22:09:07.111Z,63.40
2022-09-10T22:11:40.604Z,63.30
2022-09-10T22:14:11.994Z,62.80
2022-09-10T22:16:39.311Z,63.00
2022-09-10T22:19:09.577Z,62.80
2022-09-10T22:21:38.352Z,62.60
2022-09-10T22:24:06.647Z,62.50
2022-09-10T22:26:33.807Z,62.60
2022-09-10T22:29:02.539Z,62.90
2022-09-10T22:31:33.835Z,63.00
2022-09-10T22:34:09.891Z,62.80
2022-09-10T22:36:38.520Z,62.70
2022-09-10T22:39:08.793Z,62.40
2022-09-10T22:41:38.723Z,61.80
2022-09-10T22:44:05.972Z,63.00
2022-09-10T22:46:33.507Z,62.50
2022-09-10T22:49:01.183Z,62.40
2022-09-10T22:51:31.846Z,62.30
2022-09-10T22:53:59.061Z,62.00
2022-09-10T22:56:27.667Z,62.00
2022-09-10T22:58:57.223Z,62.10
2022-09-10T23:01:29.657Z,62.30
2022-09-10T23:03:58.167Z,62.10
2022-09-10T23:06:27.813Z,61.90
2022-09-10T23:08:58.096Z,61.60
2022-09-10T23:11:28.314Z,62.00
2022-09-10T23:13:58.075Z,61.80
2022-09-10T23:16:28.861Z,61.70
2022-09-10T23:18:57.197Z,62.00
2022-09-10T23:21:25.754Z,61.90
2022-09-10T23:23:54.981Z,61.80
2022-09-10T23:26:22.905Z,61.40
2022-09-10T23:28:50.033Z,61.00
2022-09-10T23:31:22.966Z,61.30
2022-09-10T23:33:55.154Z,61.50
2022-09-10T23:36:22.596Z,61.50
2022-09-10T23:38:49.285Z,61.50
2022-09-10T23:41:16.376Z,61.50
2022-09-10T23:43:44.352Z,61.20
2022-09-10T23:46:12.121Z,61.30
2022-09-10T23:48:39.513Z,61.60
2022-09-10T23:51:06.565Z,61.20
2022-09-10T23:53:33.469Z,60.10
2022-09-10T23:56:03.029Z,60.60
2022-09-10T23:58:30.133Z,60.30
